KLND/LND METAR and TAF weather

Enter ICAO airport designator
Station Type Date Time Source
KLND METAR 2019/02/20 17:53 UTC NOAA

KLND 201753Z AUTO 14007KT 10SM CLR M07/M18 A2953 RMK AO2 SLP056 T10671178 11067 21178 58002


Station Type Date Time Source
KLND Decoded METAR 2019/02/20 17:53 UTC NOAA

LANDER HUNT FIELD, WY, United States (KLND) 42-49N 108-44W 1694M
Feb 20, 2019 - 12:53 PM EST / 2019.02.20 1753 UTC
Wind: from the SE (140 degrees) at 8 MPH (7 KT):0
Visibility: 10 mile(s):0
Sky conditions: clear
Temperature: 19.9 F (-6.7 C)
Windchill: 10 F (-12 C):1
Dew Point: -0.0 F (-17.8 C)
Relative Humidity: 40%
Pressure (altimeter): 29.53 in. Hg (1000 hPa)
Pressure tendency: 0.01 inches (0.2 hPa) lower than three hours ago
ob: KLND 201753Z AUTO 14007KT 10SM CLR M07/M18 A2953 RMK AO2 SLP056 T10671178 11067 21178 58002
cycle: 18

Station Type Date Time Source
KLND TAF 2019/02/20 18:42 UTC NOAA

TAF KLND 201739Z 2018/2118 VRB04KT P6SM SCT070 BKN200
FM210900 VRB04KT P6SM BKN080
FM211200 VRB05KT P6SM OVC040


Example: see airport list